Detroit, Michigan
Traffic Map
Current Weather Conditions
Detroit, Michigan
Overcast
Overcast
72°
Feels Like: 72°
Wind Chill: 72° Ceiling: 9200
Heat Index: 72° Visibility: 12mi
Dew Point: 57° Wind: 6mph
Humidity: 60% Direction: 180° (S)
Pressure: 29.94in Gusts: 0mph
Raw Report DataCYQG 290120Z 18005KT 12SM BKN092 OVC130 22/14 A2994 RMK AC6AS2 SLP138 DENSITY ALT 1600FT
Traffic Incident Summary
Active as of:
Severity:
Category:
InformationThere was an issue retrieving the traffic information for this location. Please try a different location or try again shortly.
Advertisements
Track Severe Weather on mobile